Pagina principale
METAR-TAF:

METAR-TAF

Aeroporti :

Siirt, Turchia

latitudine: 37-58-41N, longitudine: 41-50-21E, altezza: 610 m

Osservazione

Il bollettino è stato emesso 2 ore e 14 minuti fa, alle 10:50 UTC
Vento 5 kt da direzioni variabili
Temperature 37°C
Umidità 15%
Pressione 1007 hPa
Visibilità 10 km o più
Poco nuvoloso ad un'altezza di 4000 ft

METAR: LTCL 161050Z VRB05KT 9999 FEW040 37/06 Q1007

Ora: 16:04 (13:04 UTC)

Previsione

Il bollettino è stato emesso 2 ore e 24 minuti fa, alle 10:40 UTC
Previsione valida dal 16 alle 12 UTC al 16 alle 21 UTC
Vento 8 kt da ovest/nord-ovest
Visibilità 10 km o più
Nubi sparse ad un'altezza di 4000 ft

TAF: LTCL 161040Z 1612/1621 30008KT 9999 SCT040

Osservazioni e previsioni meteorologiche di più di 4000 aeroporti (messaggi METAR e TAF).

Le stazioni disponibili sono rappresentate dai dischi gialli e rossi sulla carta.

Puntare il mouse per vedere il nome della stazione.

Clicca sopra per visualizzare le osservazioni e previsioni meteorologiche.

Per cambiare la mappa : fare clic sui pulsanti verdi con una croce nera per ingrandire, il pulsante verde con un trattino per diminuire, o sulla freccia verde per le mappe adiacenti.


METAR-TAF: